Time;durP1;ratioP1;P1;durP2;ratioP2;P2;SDS_P1;SDS_P2;PMS_P1;PMS_P2;Temp;Humidity;BMP_temperature;BMP_pressure;BME280_temperature;BME280_humidity;BME280_pressure;Samples;Min_cycle;Max_cycle;Signal;HPM_P1;HPM_P2
2022/06/08 00:01:39;;;;;;;;;1.33;1.33;;;;;21.60;50.91;100756.28;5012489;28;46300;-84
2022/06/08 00:04:06;;;;;;;;;1.00;1.00;;;;;21.64;49.95;100760.47;5007686;28;45463;-84
2022/06/08 00:06:32;;;;;;;;;0.67;0.67;;;;;21.66;50.22;100755.75;5012687;28;45490;-84
2022/06/08 00:08:57;;;;;;;;;0.00;0.00;;;;;21.55;50.14;100734.16;5013129;28;45302;-83
2022/06/08 00:11:22;;;;;;;;;1.00;1.00;;;;;21.55;50.21;100736.88;5017050;28;47022;-84
2022/06/08 00:13:48;;;;;;;;;2.00;1.00;;;;;21.64;50.83;100739.59;5014266;28;45658;-84
2022/06/08 00:16:14;;;;;;;;;0.33;0.33;;;;;21.65;52.07;100743.16;5015643;28;45505;-84
2022/06/08 00:18:41;;;;;;;;;1.67;1.67;;;;;21.63;52.71;100746.03;5015869;28;45389;-84
2022/06/08 00:21:08;;;;;;;;;1.00;1.00;;;;;21.62;52.68;100741.59;5012622;28;45777;-84
2022/06/08 00:23:34;;;;;;;;;1.00;1.00;;;;;21.61;52.95;100744.44;5016606;28;45578;-84
2022/06/08 00:26:00;;;;;;;;;2.00;2.00;;;;;21.53;54.23;100730.72;5012836;28;45461;-84
2022/06/08 00:28:25;;;;;;;;;1.33;0.33;;;;;21.61;53.49;100747.16;5018612;28;45541;-84
2022/06/08 00:30:51;;;;;;;;;0.00;0.00;;;;;21.53;53.42;100745.13;5011687;28;47251;-84
2022/06/08 00:33:16;;;;;;;;;0.00;0.00;;;;;21.50;53.38;100748.97;5012373;28;45740;-85
2022/06/08 00:35:42;;;;;;;;;0.67;0.67;;;;;21.48;53.90;100737.41;5012271;28;45371;-84
2022/06/08 00:38:07;;;;;;;;;1.00;1.00;;;;;21.46;54.64;100727.69;5017318;28;45429;-85
2022/06/08 00:40:54;;;;;;;;;2.33;2.00;;;;;21.46;53.67;100730.41;5013571;28;46190;-83
2022/06/08 00:43:20;;;;;;;;;1.00;1.00;;;;;21.45;54.15;100723.28;5012667;28;45502;-83
2022/06/08 00:45:46;;;;;;;;;0.67;0.67;;;;;21.32;54.01;100709.06;5012103;28;45324;-84
2022/06/08 00:48:12;;;;;;;;;0.67;0.67;;;;;21.36;54.55;100716.78;5010694;28;45470;-84
2022/06/08 00:50:45;;;;;;;;;1.00;1.00;;;;;21.20;54.03;100690.19;5011449;28;45519;-85
2022/06/08 00:53:13;;;;;;;;;1.00;1.00;;;;;21.36;54.53;100724.94;5002198;28;45333;-84
2022/06/08 00:55:40;;;;;;;;;0.00;0.00;;;;;21.34;54.87;100721.50;5015113;28;45463;-84
2022/06/08 00:58:16;;;;;;;;;1.00;1.00;;;;;21.04;54.93;100676.28;5012554;28;45498;-83
2022/06/08 01:00:42;;;;;;;;;1.67;1.00;;;;;21.15;54.87;100686.19;5012610;28;46092;-84
2022/06/08 01:03:10;;;;;;;;;1.00;1.00;;;;;21.27;55.20;100709.47;5011886;28;45640;-84
2022/06/08 01:05:46;;;;;;;;;0.00;0.00;;;;;21.23;55.48;100721.59;5012249;28;45585;-83
2022/06/08 01:08:28;;;;;;;;;1.00;1.00;;;;;21.21;54.64;100712.72;5002290;28;45489;-83
2022/06/08 01:10:57;;;;;;;;;0.33;0.33;;;;;21.03;55.30;100686.28;5012311;28;45408;-83
2022/06/08 01:13:23;;;;;;;;;1.00;1.00;;;;;21.02;55.49;100679.13;5015421;28;45474;-84
2022/06/08 01:15:49;;;;;;;;;0.00;0.00;;;;;21.08;55.59;100689.44;5012419;28;45472;-84
2022/06/08 01:18:15;;;;;;;;;1.33;1.33;;;;;21.06;55.59;100677.03;5011867;28;45470;-83
2022/06/08 01:20:55;;;;;;;;;1.00;1.00;;;;;21.14;54.95;100701.59;5011655;28;45466;-84
2022/06/08 01:23:21;;;;;;;;;1.67;1.67;;;;;21.15;55.56;100707.88;5001160;28;53908;-83
2022/06/08 01:26:06;;;;;;;;;1.00;1.00;;;;;21.10;55.31;100700.16;5002552;28;45559;-83
2022/06/08 01:28:54;;;;;;;;;0.00;0.00;;;;;20.99;54.96;100675.84;5013355;28;45596;-84
2022/06/08 01:31:44;;;;;;;;;1.00;1.00;;;;;20.97;55.33;100672.41;5015295;28;47155;-85
2022/06/08 01:34:33;;;;;;;;;1.00;1.00;;;;;21.07;54.93;100697.69;5013331;28;45776;-83
2022/06/08 01:37:07;;;;;;;;;1.00;1.00;;;;;20.98;54.74;100685.84;5011260;28;45500;-84
2022/06/08 01:39:51;;;;;;;;;0.67;0.67;;;;;21.00;55.45;100683.84;5011042;28;45380;-83
2022/06/08 01:42:34;;;;;;;;;1.00;1.00;;;;;21.01;54.94;100692.84;5006566;28;47600;-83
2022/06/08 01:45:33;;;;;;;;;2.00;1.00;;;;;20.84;54.94;100675.38;5011231;28;45475;-84
2022/06/08 01:48:14;;;;;;;;;2.00;2.00;;;;;20.96;55.59;100703.22;5011149;28;45419;-84
2022/06/08 01:50:39;;;;;;;;;0.00;0.00;;;;;20.95;55.11;100706.91;5011531;28;45529;-82
2022/06/08 01:53:37;;;;;;;;;1.00;1.00;;;;;20.91;54.91;100709.06;5011127;28;45478;-84
2022/06/08 01:56:20;;;;;;;;;4.00;2.00;;;;;20.88;55.29;100693.03;5011083;28;45552;-84
2022/06/08 01:59:06;;;;;;;;;2.00;1.33;;;;;20.85;55.24;100696.03;5015272;28;47188;-84
2022/06/08 02:01:49;;;;;;;;;1.00;1.00;;;;;20.70;55.04;100673.88;5009774;28;45415;-83
2022/06/08 02:04:25;;;;;;;;;1.00;1.00;;;;;20.80;55.33;100682.03;5013409;28;46962;-84
2022/06/08 02:06:58;;;;;;;;;2.33;2.33;;;;;20.75;56.39;100671.59;5011473;28;45518;-83
2022/06/08 02:09:42;;;;;;;;;1.33;0.00;;;;;20.61;57.06;100653.00;5010595;28;45499;-83
2022/06/08 02:12:10;;;;;;;;;1.00;1.00;;;;;20.59;57.88;100654.97;5011596;28;45381;-84
2022/06/08 02:15:06;;;;;;;;;3.00;2.00;;;;;20.65;58.13;100665.28;5012969;28;46146;-84
2022/06/08 02:17:49;;;;;;;;;1.00;1.00;;;;;20.57;58.62;100652.41;5003325;28;45535;-84
2022/06/08 02:20:21;;;;;;;;;1.67;1.67;;;;;20.72;58.35;100679.13;5004396;28;45487;-84
2022/06/08 02:23:13;;;;;;;;;0.33;0.33;;;;;20.68;59.94;100681.25;5008835;28;45612;-84
2022/06/08 02:26:01;;;;;;;;;1.00;1.00;;;;;20.68;59.44;100685.84;5009898;28;46577;-84
2022/06/08 02:28:36;;;;;;;;;2.00;2.00;;;;;20.65;60.40;100678.84;5016748;28;45530;-85
2022/06/08 02:31:09;;;;;;;;;1.33;1.00;;;;;20.57;61.75;100684.91;5012035;28;45313;-87
2022/06/08 02:36:31;;;;;;;;;1.00;1.00;;;;;20.41;61.98;100677.19;5012656;28;45848;-87
2022/06/08 02:39:31;;;;;;;;;1.67;1.67;;;;;20.30;62.53;100668.28;5009977;28;45487;-86
2022/06/08 02:42:05;;;;;;;;;1.33;1.33;;;;;20.20;63.43;100649.28;5014723;28;45637;-88
2022/06/08 02:44:33;;;;;;;;;1.00;1.00;;;;;20.24;63.18;100667.84;5015495;28;45423;-87
2022/06/08 02:47:20;;;;;;;;;0.00;0.00;;;;;20.27;64.40;100671.28;5011086;28;45374;-87
2022/06/08 02:49:45;;;;;;;;;1.00;1.00;;;;;20.26;63.77;100674.97;5010796;28;45518;-88
2022/06/08 02:52:19;;;;;;;;;2.00;2.00;;;;;20.23;64.78;100668.84;5012579;28;46009;-87
2022/06/08 02:54:45;;;;;;;;;4.00;2.33;;;;;20.13;64.30;100658.91;5013065;28;45434;-88
2022/06/08 02:57:23;;;;;;;;;3.33;2.00;;;;;20.04;66.56;100647.03;5020986;28;45444;-87
2022/06/08 03:00:12;;;;;;;;;1.00;1.00;;;;;20.11;67.69;100655.47;5024314;28;45371;-87
2022/06/08 03:02:53;;;;;;;;;2.67;1.00;;;;;19.99;67.31;100636.63;5013938;28;45396;-89
2022/06/08 03:05:25;;;;;;;;;1.00;1.00;;;;;20.05;67.26;100645.19;5015419;28;45597;-88
2022/06/08 03:08:04;;;;;;;;;3.00;3.00;;;;;19.97;67.89;100640.41;5017258;28;45407;-88
2022/06/08 03:10:43;;;;;;;;;0.00;0.00;;;;;19.96;67.30;100630.59;5026435;28;45436;-88
2022/06/08 03:13:16;;;;;;;;;1.33;0.00;;;;;19.90;68.19;100628.41;5026502;28;45451;-90
2022/06/08 03:15:48;;;;;;;;;0.00;0.00;;;;;19.84;67.27;100623.53;5017167;28;45478;-90
2022/06/08 03:18:13;;;;;;;;;1.67;1.67;;;;;19.75;67.19;100607.06;5013522;28;46574;-89
2022/06/08 03:20:38;;;;;;;;;0.00;0.00;;;;;19.58;66.93;100586.00;5017625;28;45501;-88
2022/06/08 03:23:04;;;;;;;;;2.00;0.33;;;;;19.62;67.49;100592.88;5013774;28;45329;-89
2022/06/08 03:25:29;;;;;;;;;2.33;2.00;;;;;19.69;67.71;100606.72;5018378;28;45402;-86
2022/06/08 03:27:55;;;;;;;;;1.33;1.00;;;;;19.51;68.19;100576.69;5012380;28;47308;-88
2022/06/08 03:30:22;;;;;;;;;1.33;1.00;;;;;19.51;68.51;100572.13;5015494;28;45468;-88
2022/06/08 03:32:47;;;;;;;;;2.33;1.00;;;;;19.69;67.81;100594.09;5013516;28;45612;-88
2022/06/08 03:35:13;;;;;;;;;2.00;0.00;;;;;19.69;68.61;100588.69;5016218;28;45372;-88
2022/06/08 03:37:38;;;;;;;;;4.00;1.67;;;;;19.64;69.57;100581.91;5015634;28;47228;-87
2022/06/08 03:40:05;;;;;;;;;2.00;2.00;;;;;19.57;70.17;100566.22;5014309;28;45642;-88
2022/06/08 03:42:30;;;;;;;;;0.67;0.67;;;;;19.68;68.70;100594.19;5013750;28;45373;-88
2022/06/08 03:44:55;;;;;;;;;2.00;1.00;;;;;19.28;70.28;100527.25;5017872;28;45989;-90
2022/06/08 03:47:27;;;;;;;;;1.00;1.00;;;;;19.63;70.25;100591.00;5017837;28;45447;-90
2022/06/08 03:50:02;;;;;;;;;1.67;1.33;;;;;19.53;70.39;100586.38;5014331;28;46231;-90
2022/06/08 03:52:30;;;;;;;;;0.33;0.00;;;;;19.57;71.02;100590.53;5017507;28;45421;-90
2022/06/08 03:55:00;;;;;;;;;2.00;2.00;;;;;19.43;71.12;100565.63;5013266;28;45635;-90
2022/06/08 03:57:29;;;;;;;;;1.00;1.00;;;;;19.50;71.39;100580.34;5013183;28;46355;-91
2022/06/08 03:59:55;;;;;;;;;1.00;1.00;;;;;19.52;72.45;100586.50;5013103;28;45499;-90
2022/06/08 04:02:23;;;;;;;;;1.00;1.00;;;;;19.46;71.03;100579.78;5017287;28;45444;-91
2022/06/08 04:04:48;;;;;;;;;2.33;2.00;;;;;19.45;71.48;100569.06;5028849;28;45490;-91
2022/06/08 04:07:14;;;;;;;;;2.00;2.00;;;;;19.26;71.20;100537.31;5017572;28;45562;-90
2022/06/08 04:09:40;;;;;;;;;2.67;2.67;;;;;19.39;71.85;100559.66;5013175;28;45617;-90
2022/06/08 04:12:06;;;;;;;;;1.00;1.00;;;;;19.39;71.81;100556.94;5016859;28;53100;-91
2022/06/08 04:14:31;;;;;;;;;2.00;2.00;;;;;19.38;71.42;100550.66;5009191;28;45694;-90
2022/06/08 04:16:56;;;;;;;;;1.33;1.00;;;;;19.30;71.64;100549.59;5013540;28;47147;-91
2022/06/08 04:19:22;;;;;;;;;2.00;2.00;;;;;19.31;72.08;100552.16;5016177;28;45439;-91
2022/06/08 04:21:48;;;;;;;;;1.33;1.00;;;;;19.17;72.12;100522.72;5009167;28;45808;-89
2022/06/08 04:24:16;;;;;;;;;0.00;0.00;;;;;19.12;72.19;100506.91;5013342;28;45692;-90
2022/06/08 04:26:41;;;;;;;;;4.33;2.00;;;;;19.26;72.18;100537.31;5012249;28;48259;-90
2022/06/08 04:29:09;;;;;;;;;1.33;1.33;;;;;19.17;72.35;100525.44;5006079;28;45411;-91
2022/06/08 04:31:34;;;;;;;;;3.00;1.67;;;;;19.13;71.82;100530.25;5014685;28;45447;-91
2022/06/08 04:34:01;;;;;;;;;4.00;1.00;;;;;19.14;71.88;100542.75;5017592;28;45532;-90
2022/06/08 04:36:27;;;;;;;;;1.67;1.67;;;;;19.06;72.28;100536.28;5012571;28;45434;-89
2022/06/08 04:38:52;;;;;;;;;2.00;2.00;;;;;19.04;72.92;100532.88;5004434;28;46966;-84
2022/06/08 04:41:18;;;;;;;;;1.00;1.00;;;;;18.91;72.84;100512.25;5007493;28;45418;-85
2022/06/08 04:43:44;;;;;;;;;5.33;3.00;;;;;18.95;73.81;100535.31;5005955;28;45704;-85
2022/06/08 04:46:15;;;;;;;;;1.00;1.00;;;;;18.94;73.28;100532.75;5003834;28;46106;-86
2022/06/08 04:48:42;;;;;;;;;1.00;1.00;;;;;18.86;73.40;100511.78;5012323;28;45506;-86
2022/06/08 04:51:08;;;;;;;;;0.00;0.00;;;;;18.94;73.19;100517.41;5012020;28;45549;-85
2022/06/08 04:53:34;;;;;;;;;0.33;0.33;;;;;18.89;73.30;100507.97;5007731;28;45456;-86
2022/06/08 04:55:59;;;;;;;;;1.00;1.00;;;;;18.81;73.23;100492.41;5012551;28;46029;-86
2022/06/08 04:58:26;;;;;;;;;1.00;1.00;;;;;18.96;73.83;100522.66;5008158;28;45834;-84
2022/06/08 05:00:53;;;;;;;;;2.00;1.00;;;;;18.92;73.48;100522.09;5012002;28;45546;-83
2022/06/08 05:03:19;;;;;;;;;2.67;1.00;;;;;18.90;73.82;100518.66;5015077;28;45518;-81
2022/06/08 05:05:44;;;;;;;;;1.00;1.00;;;;;18.82;73.95;100501.34;5015086;28;46211;-82
2022/06/08 05:08:10;;;;;;;;;3.00;1.00;;;;;18.87;73.85;100508.09;5011438;28;45552;-82
2022/06/08 05:10:37;;;;;;;;;1.00;1.00;;;;;18.87;75.08;100500.00;5008401;28;45597;-82
2022/06/08 05:13:03;;;;;;;;;1.33;1.33;;;;;18.76;74.94;100481.09;5011958;28;45343;-83
2022/06/08 05:15:31;;;;;;;;;0.00;0.00;;;;;18.82;74.11;100495.94;5008842;28;47308;-80
2022/06/08 05:17:58;;;;;;;;;0.67;0.67;;;;;18.81;73.99;100488.84;5006696;28;45485;-81
2022/06/08 05:20:24;;;;;;;;;1.00;1.00;;;;;18.76;74.47;100489.19;5009905;28;45465;-80
2022/06/08 05:22:51;;;;;;;;;3.67;1.00;;;;;18.76;75.06;100481.09;5008673;28;45489;-80
2022/06/08 05:25:23;;;;;;;;;3.00;1.00;;;;;18.74;75.01;100486.59;5013832;28;47110;-81
2022/06/08 05:27:49;;;;;;;;;1.33;1.00;;;;;18.68;75.77;100478.16;5009162;28;45424;-81
2022/06/08 05:30:14;;;;;;;;;0.00;0.00;;;;;18.68;76.10;100476.34;5011223;28;45468;-81
2022/06/08 05:32:41;;;;;;;;;2.00;1.00;;;;;18.69;74.83;100479.88;5010270;28;45683;-80
2022/06/08 05:35:07;;;;;;;;;1.00;1.00;;;;;18.69;74.92;100493.38;5010019;28;46458;-81
2022/06/08 05:37:32;;;;;;;;;3.00;1.33;;;;;18.55;75.42;100456.72;5010249;28;45578;-83
2022/06/08 05:39:58;;;;;;;;;1.00;1.00;;;;;18.76;75.94;100484.69;5009583;28;45380;-82
2022/06/08 05:42:24;;;;;;;;;1.00;1.00;;;;;18.75;75.69;100476.66;5011448;28;45748;-83
2022/06/08 05:44:49;;;;;;;;;1.00;1.00;;;;;18.77;75.33;100483.69;5013374;28;49134;-83
2022/06/08 05:47:16;;;;;;;;;1.00;1.00;;;;;18.74;75.15;100480.34;5007931;28;45538;-82
2022/06/08 05:49:44;;;;;;;;;0.00;0.00;;;;;18.26;75.21;100403.28;5013710;28;45446;-83
2022/06/08 05:52:11;;;;;;;;;0.00;0.00;;;;;18.60;75.35;100457.19;5008690;28;45699;-82
2022/06/08 05:54:36;;;;;;;;;0.00;0.00;;;;;18.74;75.81;100467.72;5015281;28;46959;-83
2022/06/08 05:57:02;;;;;;;;;0.00;0.00;;;;;18.84;75.24;100492.13;5013943;28;46538;-83
2022/06/08 05:59:28;;;;;;;;;0.00;0.00;;;;;18.66;74.83;100455.81;5008060;28;45555;-82
2022/06/08 06:01:57;;;;;;;;;0.00;0.00;;;;;18.69;75.00;100469.94;5014592;28;45507;-82
2022/06/08 06:04:22;;;;;;;;;0.33;0.00;;;;;18.33;76.16;100415.28;5018640;28;46550;-82
2022/06/08 06:06:48;;;;;;;;;0.00;0.00;;;;;18.64;75.23;100482.97;5015346;28;45484;-82
2022/06/08 06:09:16;;;;;;;;;0.00;0.00;;;;;18.48;75.61;100456.34;5015081;28;45384;-91
2022/06/08 06:11:41;;;;;;;;;0.00;0.00;;;;;18.64;75.14;100485.66;5012843;28;45439;-95
2022/06/08 06:14:08;;;;;;;;;0.00;0.00;;;;;18.66;75.44;100493.59;5013356;28;46859;-86
2022/06/08 06:16:33;;;;;;;;;0.00;0.00;;;;;18.52;75.98;100465.91;5012506;28;45394;-86
2022/06/08 06:18:59;;;;;;;;;0.00;0.00;;;;;18.73;79.46;100493.00;5014824;28;45753;-86
2022/06/08 06:21:25;;;;;;;;;1.00;1.00;;;;;18.78;77.78;100492.66;5015171;28;45410;-89
2022/06/08 06:23:55;;;;;;;;;0.67;0.00;;;;;18.70;76.15;100481.59;5009127;28;45869;-96
2022/06/08 06:26:22;;;;;;;;;1.00;0.00;;;;;18.80;75.92;100496.09;5002998;28;45488;-93
2022/06/08 06:28:47;;;;;;;;;0.00;0.00;;;;;18.60;76.26;100450.94;5011302;28;45412;-94
2022/06/08 06:33:48;;;;;;;;;0.00;0.00;;;;;18.57;76.08;100449.34;5243838;22;45915;-95
2022/06/08 06:36:13;;;;;;;;;0.00;0.00;;;;;18.78;76.97;100492.66;5043053;28;45311;-96
2022/06/08 06:38:39;;;;;;;;;0.33;0.33;;;;;18.52;76.11;100452.44;5049644;28;45343;-96
2022/06/08 06:41:05;;;;;;;;;1.00;0.00;;;;;18.70;76.01;100482.44;5052565;28;45376;-94
2022/06/08 06:43:31;;;;;;;;;0.75;0.75;;;;;17.78;76.05;100333.41;5273136;22;46417;-96
2022/06/08 06:45:56;;;;;;;;;0.00;0.00;;;;;18.87;76.54;100501.81;5035742;28;45602;-91
2022/06/08 06:48:21;;;;;;;;;0.33;0.33;;;;;18.42;76.01;100424.47;5036874;28;46150;-95
2022/06/08 06:50:47;;;;;;;;;0.67;0.00;;;;;18.46;76.18;100425.06;5039085;28;45453;-92
2022/06/08 06:53:13;;;;;;;;;0.00;0.00;;;;;18.76;76.43;100483.78;5032454;28;46274;-91
2022/06/08 06:55:38;;;;;;;;;0.00;0.00;;;;;18.76;75.53;100486.50;5035030;28;45521;-93
2022/06/08 06:58:04;;;;;;;;;0.00;0.00;;;;;18.74;75.64;100491.16;5035467;28;45752;-92
2022/06/08 07:00:30;;;;;;;;;0.00;0.00;;;;;18.54;76.42;100463.97;5039710;28;45422;-93
2022/06/08 07:02:55;;;;;;;;;1.00;0.00;;;;;18.67;75.97;100501.59;5038667;28;45360;-91
2022/06/08 07:05:28;;;;;;;;;0.00;0.00;;;;;18.68;77.15;100515.94;5038345;28;45317;-93
2022/06/08 07:07:53;;;;;;;;;0.00;0.00;;;;;18.58;76.67;100496.09;5033241;28;45643;-91
2022/06/08 07:10:19;;;;;;;;;0.00;0.00;;;;;18.76;77.63;100513.50;5032681;28;45333;-84
2022/06/08 07:12:45;;;;;;;;;0.00;0.00;;;;;18.73;76.72;100514.59;5036325;28;46085;-88
2022/06/08 07:15:13;;;;;;;;;0.00;0.00;;;;;18.67;77.01;100498.91;5031395;28;45693;-94
2022/06/08 07:17:39;;;;;;;;;1.00;0.00;;;;;18.54;77.26;100472.06;5034467;28;45426;-94
2022/06/08 07:20:05;;;;;;;;;0.00;0.00;;;;;18.69;76.76;100512.28;5029658;28;45394;-94
2022/06/08 07:22:30;;;;;;;;;1.00;0.00;;;;;18.65;77.19;100510.81;5040527;28;45570;-84
2022/06/08 07:24:55;;;;;;;;;0.00;0.00;;;;;18.56;78.33;100486.25;5040749;28;45530;-96
2022/06/08 07:27:22;;;;;;;;;0.33;0.00;;;;;18.62;77.60;100495.72;5042833;28;45617;-95
2022/06/08 07:29:48;;;;;;;;;0.00;0.00;;;;;18.79;78.37;100524.06;5039014;28;45403;-93
2022/06/08 07:32:14;;;;;;;;;0.00;0.00;;;;;18.69;78.06;100493.38;5033690;28;46017;-94
2022/06/08 07:34:39;;;;;;;;;0.00;0.00;;;;;18.86;77.78;100524.44;5038509;28;45440;-93
2022/06/08 07:37:05;;;;;;;;;0.00;0.00;;;;;18.68;77.09;100487.13;5039374;28;45513;-93
2022/06/08 07:39:31;;;;;;;;;0.00;0.00;;;;;18.88;77.81;100527.88;5038687;28;45619;-93
2022/06/08 07:41:56;;;;;;;;;0.33;0.00;;;;;18.83;77.48;100514.72;5036095;28;47105;-94
2022/06/08 07:44:22;;;;;;;;;0.67;0.00;;;;;18.81;77.44;100503.19;5037000;28;46488;-91
2022/06/08 07:46:48;;;;;;;;;0.00;0.00;;;;;18.96;77.28;100518.16;5031674;28;45865;-94
2022/06/08 07:52:00;;;;;;;;;0.00;0.00;;;;;19.06;77.20;100514.66;5031433;28;45423;-89
2022/06/08 07:54:27;;;;;;;;;28.33;24.33;;;;;19.05;77.07;100513.81;5048507;28;45424;-95
2022/06/08 07:56:54;;;;;;;;;1.00;1.00;;;;;18.87;77.57;100485.63;5041453;28;47533;-95
2022/06/08 07:59:22;;;;;;;;;0.67;0.00;;;;;19.11;77.24;100518.72;5048397;28;44911;-95
2022/06/08 08:01:48;;;;;;;;;0.00;0.00;;;;;19.06;76.85;100495.75;5044856;28;45534;-94
2022/06/08 08:04:13;;;;;;;;;0.00;0.00;;;;;19.23;77.11;100515.97;5045953;28;45597;-94
2022/06/08 08:06:38;;;;;;;;;0.00;0.00;;;;;19.07;77.38;100481.28;5043194;28;45495;-96
2022/06/08 08:09:04;;;;;;;;;0.00;0.00;;;;;19.10;78.12;100468.34;5044089;28;45486;-96
2022/06/08 08:11:29;;;;;;;;;0.00;0.00;;;;;19.38;76.98;100506.56;5046559;28;46316;-94
2022/06/08 08:13:54;;;;;;;;;0.00;0.00;;;;;19.39;76.29;100511.00;5036251;28;45960;-95
2022/06/08 08:16:20;;;;;;;;;1.00;0.00;;;;;19.30;77.09;100484.75;5022060;28;45440;-94
2022/06/08 08:18:45;;;;;;;;;0.00;0.00;;;;;19.49;77.28;100502.97;5038197;28;45448;-93
2022/06/08 08:21:11;;;;;;;;;0.00;0.00;;;;;19.23;77.83;100446.56;5038822;28;46167;-94
2022/06/08 08:23:36;;;;;;;;;0.00;0.00;;;;;19.43;76.67;100471.88;5037102;28;45570;-96
2022/06/08 08:26:02;;;;;;;;;0.00;0.00;;;;;19.24;77.28;100432.06;5039437;28;45840;-93
2022/06/08 08:28:27;;;;;;;;;0.00;0.00;;;;;19.03;76.64;100383.41;5036539;28;45672;-96
2022/06/08 08:30:53;;;;;;;;;0.00;0.00;;;;;19.42;77.25;100442.31;5037599;28;45978;-94
2022/06/08 08:33:18;;;;;;;;;0.00;0.00;;;;;19.69;77.95;100482.34;5035652;28;45371;-94
2022/06/08 08:35:44;;;;;;;;;0.00;0.00;;;;;19.91;77.76;100500.28;5037016;28;45474;-93
2022/06/08 08:38:09;;;;;;;;;1.67;0.00;;;;;19.77;77.26;100471.72;5031783;28;45495;-94
2022/06/08 08:40:46;;;;;;;;;0.00;0.00;;;;;19.81;77.49;100474.03;5030666;28;45949;-91
2022/06/08 08:43:19;;;;;;;;;0.00;0.00;;;;;19.89;76.84;100478.78;5032484;28;45702;-94
2022/06/08 08:46:06;;;;;;;;;0.00;0.00;;;;;20.11;77.53;100507.53;5031793;28;45450;-91
2022/06/08 08:48:50;;;;;;;;;0.00;0.00;;;;;20.12;77.08;100506.53;5037912;28;45685;-94
2022/06/08 08:51:48;;;;;;;;;0.00;0.00;;;;;20.01;76.51;100475.00;5032618;28;46158;-91
2022/06/08 08:54:27;;;;;;;;;0.00;0.00;;;;;20.26;77.00;100515.28;5035118;28;45608;-96
2022/06/08 08:57:06;;;;;;;;;0.00;0.00;;;;;20.08;76.51;100488.84;5028058;28;45438;-93
2022/06/08 08:59:32;;;;;;;;;0.00;0.00;;;;;20.09;76.64;100485.16;5042740;28;45490;-93
2022/06/08 09:01:59;;;;;;;;;2.00;2.00;;;;;20.30;76.83;100519.41;5035810;28;45938;-89
2022/06/08 09:04:33;;;;;;;;;12.33;12.00;;;;;20.34;76.62;100512.75;5033298;28;46412;-92
2022/06/08 09:07:17;;;;;;;;;54.00;44.00;;;;;20.10;76.82;100464.38;5029034;28;45431;-91
2022/06/08 09:09:43;;;;;;;;;0.00;0.00;;;;;19.73;76.07;100408.09;5028948;28;45595;-89
2022/06/08 09:12:20;;;;;;;;;0.00;0.00;;;;;19.97;75.59;100446.50;5030240;28;48478;-92
2022/06/08 09:14:50;;;;;;;;;0.00;0.00;;;;;20.43;76.43;100523.63;5037972;28;45496;-93
2022/06/08 09:17:20;;;;;;;;;0.00;0.00;;;;;20.49;76.18;100522.22;5036559;28;45418;-95
2022/06/08 09:19:50;;;;;;;;;0.00;0.00;;;;;20.38;75.44;100497.97;5036461;28;45545;-90
2022/06/08 09:22:28;;;;;;;;;1.00;0.00;;;;;20.61;76.72;100521.16;5031053;28;47035;-89
2022/06/08 09:25:19;;;;;;;;;0.67;0.00;;;;;20.64;77.32;100507.31;5035656;28;45637;-92
2022/06/08 09:27:50;;;;;;;;;0.00;0.00;;;;;20.83;75.43;100473.16;5030016;28;45527;-90
2022/06/08 09:30:19;;;;;;;;;0.00;0.00;;;;;21.23;76.84;100478.47;5033765;28;46895;-92
2022/06/08 09:32:47;;;;;;;;;0.00;0.00;;;;;21.79;75.73;100503.16;5032950;28;46049;-93
2022/06/08 09:35:24;;;;;;;;;0.00;0.00;;;;;22.20;75.49;100501.06;5032872;28;45388;-87
2022/06/08 09:37:52;;;;;;;;;0.50;0.50;;;;;22.77;75.35;100490.94;5035790;28;45703;-92
2022/06/08 09:40:36;;;;;;;;;0.00;0.00;;;;;23.48;72.85;100497.44;5035158;28;45502;-92
2022/06/08 09:43:31;;;;;;;;;0.00;0.00;;;;;24.17;70.33;100499.34;5032179;28;46339;-91
2022/06/08 09:46:15;;;;;;;;;0.00;0.00;;;;;24.72;67.97;100491.78;5033914;28;45416;-89
2022/06/08 09:52:05;;;;;;;;;0.00;0.00;;;;;25.74;61.55;100487.84;5038917;28;45423;-89
2022/06/08 09:54:43;;;;;;;;;2.00;0.75;;;;;26.39;60.09;100486.88;5036398;28;47202;-96
2022/06/08 09:57:27;;;;;;;;;0.50;0.50;;;;;26.31;57.16;100473.22;5036010;28;45644;-88
2022/06/08 10:00:08;;;;;;;;;8.33;6.33;;;;;25.85;57.30;100441.06;5032425;28;45482;-87
2022/06/08 10:02:46;;;;;;;;;0.00;0.00;;;;;25.95;58.42;100435.44;5034473;28;45507;-85
2022/06/08 10:05:30;;;;;;;;;0.00;0.00;;;;;26.00;57.60;100486.81;5033250;28;46271;-87
2022/06/08 10:08:17;;;;;;;;;0.50;0.50;;;;;25.59;57.51;100478.63;5032301;28;45374;-88
2022/06/08 10:11:34;;;;;;;;;0.50;0.50;;;;;25.07;59.33;100474.31;5035387;28;45565;-89
2022/06/08 10:14:00;;;;;;;;;2.00;1.50;;;;;24.53;61.63;100458.31;5033054;28;46884;-86
2022/06/08 10:16:32;;;;;;;;;1.00;1.00;;;;;24.00;62.94;100440.38;5041996;28;46408;-94
2022/06/08 10:19:06;;;;;;;;;1.00;1.00;;;;;23.95;63.80;100491.72;5042954;28;45486;-93
2022/06/08 10:21:39;;;;;;;;;0.00;0.00;;;;;23.71;64.79;100520.44;5039566;28;45484;-96
2022/06/08 10:24:17;;;;;;;;;1.00;1.00;;;;;23.33;65.20;100499.88;5046014;28;45432;-96
2022/06/08 10:26:57;;;;;;;;;0.00;0.00;;;;;23.11;65.04;100512.09;5025353;28;47231;-88
2022/06/08 10:29:49;;;;;;;;;0.25;0.25;;;;;22.95;66.22;100510.00;5030012;28;45590;-92
2022/06/08 10:32:30;;;;;;;;;0.00;0.00;;;;;22.74;66.27;100513.84;5028341;28;45520;-90
2022/06/08 10:34:55;;;;;;;;;4.00;4.00;;;;;22.48;66.40;100499.25;5043621;28;45498;-94
2022/06/08 10:37:30;;;;;;;;;1.00;1.00;;;;;22.47;67.38;100514.69;5049781;28;45366;-93
2022/06/08 10:40:06;;;;;;;;;1.00;1.00;;;;;22.14;67.82;100464.47;5043244;28;45344;-94
2022/06/08 10:42:40;;;;;;;;;60.67;46.33;;;;;22.46;68.51;100506.69;5076802;22;46219;-96
2022/06/08 10:45:21;;;;;;;;;5.00;5.00;;;;;22.74;69.18;100502.13;5041148;28;45559;-94
2022/06/08 10:50:34;;;;;;;;;2.33;0.67;;;;;22.45;68.27;100347.44;5046124;22;45462;-96
2022/06/08 10:56:26;;;;;;;;;1.00;1.00;;;;;23.57;66.61;100504.66;5034532;28;45437;-92
2022/06/08 10:59:03;;;;;;;;;1.50;1.50;;;;;23.42;66.61;100487.22;5037008;28;45571;-94
2022/06/08 11:01:50;;;;;;;;;2.00;2.00;;;;;23.39;65.54;100507.44;5035848;28;45763;-93
2022/06/08 11:04:55;;;;;;;;;3.33;1.67;;;;;23.23;66.84;100501.84;5026156;28;45609;-92
2022/06/08 11:07:23;;;;;;;;;2.33;2.00;;;;;22.74;67.83;100426.88;5020322;28;45551;-93
2022/06/08 11:09:52;;;;;;;;;3.50;2.00;;;;;22.56;66.99;100396.13;5032225;28;46951;-92
2022/06/08 11:13:04;;;;;;;;;1.75;1.00;;;;;23.46;67.53;100516.66;5031085;28;45523;-78
2022/06/08 11:15:39;;;;;;;;;1.50;1.50;;;;;22.66;64.38;100402.34;5005326;28;45590;-82
2022/06/08 11:18:15;;;;;;;;;2.00;2.00;;;;;23.36;63.96;100508.56;5005683;28;45780;-78
2022/06/08 11:20:49;;;;;;;;;1.00;1.00;;;;;23.36;64.35;100510.44;4987807;28;47385;-78
2022/06/08 11:23:23;;;;;;;;;1.00;1.00;;;;;23.21;62.36;100504.69;5006920;28;45510;-80
2022/06/08 11:26:13;;;;;;;;;1.00;1.00;;;;;23.24;62.90;100495.38;5012825;28;45371;-92
2022/06/08 11:28:44;;;;;;;;;0.00;0.00;;;;;23.35;62.97;100506.03;5004131;28;45671;-88
2022/06/08 11:31:30;;;;;;;;;2.00;2.00;;;;;23.47;63.85;100506.63;5009571;28;47200;-93
2022/06/08 11:34:13;;;;;;;;;1.50;0.25;;;;;23.30;62.49;100465.69;5018826;28;45683;-96
2022/06/08 11:36:49;;;;;;;;;1.00;1.00;;;;;23.53;62.05;100504.16;5284927;22;46426;-94
2022/06/08 11:39:26;;;;;;;;;1.50;1.50;;;;;23.30;61.84;100481.16;5033616;28;45591;-94
2022/06/08 11:47:11;;;;;;;;;0.33;0.33;;;;;23.07;59.70;100518.81;4999148;28;45546;-84
2022/06/08 11:49:41;;;;;;;;;0.67;0.67;;;;;22.78;59.85;100487.22;4996714;28;45757;-91
2022/06/08 11:52:31;;;;;;;;;2.67;2.00;;;;;22.96;60.80;100511.69;4994346;28;46400;-85
2022/06/08 11:55:03;;;;;;;;;1.00;1.00;;;;;22.83;59.43;100497.63;4995524;28;45658;-84
2022/06/08 12:00:17;;;;;;;;;0.75;0.75;;;;;22.09;58.61;100328.38;5194271;22;45624;-85
2022/06/08 12:02:46;;;;;;;;;3.33;1.00;;;;;22.79;58.16;100437.28;5015031;28;47475;-87
2022/06/08 12:05:19;;;;;;;;;1.00;1.00;;;;;23.02;56.78;100466.78;5015982;28;45745;-86
2022/06/08 12:07:56;;;;;;;;;0.00;0.00;;;;;23.23;58.04;100483.66;5020724;28;45483;-93
2022/06/08 12:10:26;;;;;;;;;2.00;2.00;;;;;23.47;55.79;100495.75;5027795;28;45609;-87